Time;durP1;ratioP1;P1;durP2;ratioP2;P2;SDS_P1;SDS_P2;PMS_P1;PMS_P2;Temp;Humidity;BMP_temperature;BMP_pressure;BME280_temperature;BME280_humidity;BME280_pressure;Samples;Min_cycle;Max_cycle;Signal;HPM_P1;HPM_P2
2024/01/21 00:01:11;;;;;;;19.63;7.33;;;2.60;99.90;;;;;;7281901;19;20540;-73
2024/01/21 00:03:37;;;;;;;16.97;7.17;;;2.60;99.90;;;;;;7281546;19;20206;-73
2024/01/21 00:06:03;;;;;;;21.00;7.30;;;2.60;99.90;;;;;;7280619;19;20208;-73
2024/01/21 00:08:28;;;;;;;18.27;8.73;;;2.60;99.90;;;;;;7281016;19;20745;-74
2024/01/21 00:10:54;;;;;;;16.30;7.10;;;2.70;99.90;;;;;;7280065;19;20211;-74
2024/01/21 00:13:20;;;;;;;17.40;7.27;;;2.60;99.90;;;;;;7281123;19;20654;-75
2024/01/21 00:15:46;;;;;;;17.53;8.07;;;2.60;99.90;;;;;;7304097;19;20210;-73
2024/01/21 00:18:11;;;;;;;15.07;6.70;;;2.70;99.90;;;;;;7279032;19;20207;-73
2024/01/21 00:20:37;;;;;;;16.53;6.97;;;2.60;99.90;;;;;;7278758;19;20218;-72
2024/01/21 00:23:03;;;;;;;14.40;7.40;;;2.50;99.90;;;;;;7281814;19;20196;-73
2024/01/21 00:25:28;;;;;;;15.63;7.50;;;2.50;99.90;;;;;;7280514;19;20258;-73
2024/01/21 00:27:54;;;;;;;17.80;7.67;;;2.60;99.90;;;;;;7281864;19;20590;-73
2024/01/21 00:30:20;;;;;;;14.83;6.83;;;2.60;99.90;;;;;;7280553;19;20186;-73
2024/01/21 00:32:46;;;;;;;19.63;7.50;;;2.50;99.90;;;;;;7302967;19;20195;-73
2024/01/21 00:35:11;;;;;;;17.20;7.23;;;2.60;99.90;;;;;;7277791;19;20181;-73
2024/01/21 00:37:37;;;;;;;16.00;6.60;;;2.60;99.90;;;;;;7281078;19;20277;-73
2024/01/21 00:40:05;;;;;;;16.60;7.30;;;2.70;99.90;;;;;;7282744;19;20193;-73
2024/01/21 00:42:30;;;;;;;16.30;6.47;;;2.60;99.90;;;;;;7279285;19;20256;-73
2024/01/21 00:44:56;;;;;;;15.50;6.93;;;2.60;99.90;;;;;;7279317;19;20267;-73
2024/01/21 00:47:22;;;;;;;14.77;6.87;;;2.60;99.90;;;;;;7278820;19;20257;-73
2024/01/21 00:49:48;;;;;;;14.73;6.90;;;2.70;99.90;;;;;;7291685;19;20555;-73
2024/01/21 00:52:13;;;;;;;16.57;6.70;;;2.70;99.90;;;;;;7298582;19;20190;-73
2024/01/21 00:54:39;;;;;;;16.07;6.90;;;2.70;99.90;;;;;;7278285;19;20201;-73
2024/01/21 00:57:05;;;;;;;15.93;7.00;;;2.80;99.90;;;;;;7278962;19;20186;-73
2024/01/21 00:59:30;;;;;;;15.40;7.00;;;2.90;99.90;;;;;;7279541;19;20654;-72
2024/01/21 01:01:56;;;;;;;13.97;6.50;;;2.90;99.90;;;;;;7279912;19;20262;-73
2024/01/21 01:04:22;;;;;;;13.93;6.77;;;3.00;99.90;;;;;;7278645;19;20640;-73
2024/01/21 01:06:47;;;;;;;16.03;7.17;;;3.00;99.90;;;;;;7294664;19;20197;-73
2024/01/21 01:09:13;;;;;;;16.37;6.93;;;2.90;99.90;;;;;;7295271;19;20561;-74
2024/01/21 01:11:39;;;;;;;14.23;6.43;;;3.00;99.90;;;;;;7278478;19;20221;-73
2024/01/21 01:14:04;;;;;;;13.93;5.97;;;3.00;99.90;;;;;;7280552;19;20212;-74
2024/01/21 01:16:30;;;;;;;14.67;6.30;;;2.90;99.90;;;;;;7279819;19;20666;-74
2024/01/21 01:18:56;;;;;;;15.67;6.67;;;2.90;99.90;;;;;;7278737;19;20183;-73
2024/01/21 01:21:21;;;;;;;14.23;6.10;;;2.90;99.90;;;;;;7277765;19;20754;-74
2024/01/21 01:23:47;;;;;;;14.27;6.47;;;2.90;99.90;;;;;;7296055;19;20203;-73
2024/01/21 01:26:13;;;;;;;12.93;5.70;;;2.90;99.90;;;;;;7289941;19;20216;-73
2024/01/21 01:28:39;;;;;;;14.20;5.90;;;2.90;99.90;;;;;;7281408;19;20194;-74
2024/01/21 01:31:04;;;;;;;14.17;6.27;;;2.90;99.90;;;;;;7278400;19;20199;-74
2024/01/21 01:33:30;;;;;;;11.83;5.90;;;2.90;99.90;;;;;;7278758;19;20210;-73
2024/01/21 01:35:56;;;;;;;14.53;6.37;;;2.90;99.90;;;;;;7279059;19;20195;-73
2024/01/21 01:38:21;;;;;;;13.27;5.77;;;3.00;99.90;;;;;;7278286;19;20196;-73
2024/01/21 01:40:47;;;;;;;12.53;5.33;;;3.00;99.90;;;;;;7296165;19;20210;-73
2024/01/21 01:43:13;;;;;;;13.10;5.77;;;3.10;99.90;;;;;;7289517;19;20201;-73
2024/01/21 01:45:38;;;;;;;12.30;5.23;;;3.20;99.90;;;;;;7277907;19;21090;-73
2024/01/21 01:48:05;;;;;;;11.30;5.17;;;3.20;99.90;;;;;;7276225;19;20200;-74
2024/01/21 01:50:32;;;;;;;12.00;5.03;;;3.20;99.90;;;;;;7277531;19;20206;-73
2024/01/21 01:52:59;;;;;;;11.37;5.30;;;3.20;99.90;;;;;;7277856;19;20192;-75
2024/01/21 01:55:26;;;;;;;12.03;5.00;;;3.20;99.90;;;;;;7276630;19;20988;-73
2024/01/21 01:57:52;;;;;;;10.67;4.57;;;3.20;99.90;;;;;;7278044;19;20187;-73
2024/01/21 02:00:18;;;;;;;12.80;5.07;;;3.20;99.90;;;;;;7289404;19;20637;-73
2024/01/21 02:02:43;;;;;;;11.37;4.27;;;3.10;99.90;;;;;;7295590;19;20195;-73
2024/01/21 02:05:09;;;;;;;11.43;5.00;;;3.10;99.90;;;;;;7276736;19;20261;-73
2024/01/21 02:07:35;;;;;;;11.57;5.03;;;3.10;99.90;;;;;;7276859;19;20206;-75
2024/01/21 02:10:02;;;;;;;11.37;5.23;;;3.20;99.90;;;;;;7278569;19;20217;-74
2024/01/21 02:12:28;;;;;;;11.33;5.27;;;3.20;99.90;;;;;;7277131;19;20199;-73
2024/01/21 02:14:54;;;;;;;11.13;5.20;;;3.30;99.90;;;;;;7277107;19;20255;-74
2024/01/21 02:17:20;;;;;;;11.07;4.77;;;3.30;99.90;;;;;;7275806;19;20606;-73
2024/01/21 02:19:45;;;;;;;10.63;4.70;;;3.40;99.90;;;;;;7297602;19;20185;-74
2024/01/21 02:22:12;;;;;;;10.20;4.57;;;3.40;99.90;;;;;;7275944;19;20222;-73
2024/01/21 02:24:38;;;;;;;11.00;4.77;;;3.40;99.90;;;;;;7277303;19;20214;-74
2024/01/21 02:27:04;;;;;;;11.73;4.90;;;3.40;99.90;;;;;;7276126;19;20246;-73
2024/01/21 02:29:30;;;;;;;12.13;5.07;;;3.50;99.90;;;;;;7276779;19;20191;-73
2024/01/21 02:31:57;;;;;;;10.73;4.97;;;3.50;99.90;;;;;;7277640;19;20197;-74
2024/01/21 02:34:23;;;;;;;10.53;4.87;;;3.60;99.90;;;;;;7276122;19;20185;-74
2024/01/21 02:36:49;;;;;;;12.27;5.23;;;3.60;99.90;;;;;;7276873;19;20191;-73
2024/01/21 02:39:15;;;;;;;10.67;4.83;;;3.60;99.90;;;;;;7296823;19;20195;-73
2024/01/21 02:41:40;;;;;;;11.43;4.80;;;3.60;99.90;;;;;;7278739;19;20194;-73
2024/01/21 02:44:06;;;;;;;9.93;4.77;;;3.60;99.90;;;;;;7276302;19;20182;-74
2024/01/21 02:46:32;;;;;;;12.27;4.90;;;3.40;99.90;;;;;;7275444;19;20185;-73
2024/01/21 02:48:58;;;;;;;11.43;4.93;;;3.40;99.90;;;;;;7275529;19;20182;-73
2024/01/21 02:51:23;;;;;;;10.83;4.90;;;3.40;99.90;;;;;;7276241;19;20306;-72
2024/01/21 02:53:50;;;;;;;11.73;5.03;;;3.40;99.90;;;;;;7275258;19;21018;-73
2024/01/21 02:56:26;;;;;;;10.90;5.00;;;3.30;99.90;;;;;;7299951;19;20651;-73
2024/01/21 02:58:53;;;;;;;12.37;5.33;;;3.30;99.90;;;;;;7258508;19;20343;-72
2024/01/21 03:01:19;;;;;;;12.23;5.33;;;3.20;99.90;;;;;;7292518;19;20197;-74
2024/01/21 03:03:45;;;;;;;13.37;4.97;;;3.20;99.90;;;;;;7303323;19;20197;-73
2024/01/21 03:06:12;;;;;;;11.63;5.00;;;3.20;99.90;;;;;;7282202;19;20202;-73
2024/01/21 03:08:38;;;;;;;13.30;5.40;;;3.20;99.90;;;;;;7284204;19;20785;-74
2024/01/21 03:11:04;;;;;;;12.40;5.00;;;3.20;99.90;;;;;;7281150;19;20210;-76
2024/01/21 03:13:30;;;;;;;11.83;5.10;;;3.30;99.90;;;;;;7283150;19;20211;-73
2024/01/21 03:15:56;;;;;;;11.93;5.20;;;3.30;99.90;;;;;;7282751;19;20232;-73
2024/01/21 03:18:22;;;;;;;13.07;5.00;;;3.30;99.90;;;;;;7281436;19;20189;-73
2024/01/21 03:20:47;;;;;;;10.67;5.30;;;3.30;99.90;;;;;;7300270;19;20574;-73
2024/01/21 03:23:13;;;;;;;13.63;6.17;;;3.40;99.90;;;;;;7293111;19;20193;-74
2024/01/21 03:25:39;;;;;;;12.33;5.80;;;3.40;99.90;;;;;;7281008;19;21729;-73
2024/01/21 03:28:06;;;;;;;12.07;5.70;;;3.40;99.90;;;;;;7283547;19;20199;-73
2024/01/21 03:30:31;;;;;;;13.43;6.27;;;3.40;99.90;;;;;;7283130;19;20183;-73
2024/01/21 03:32:57;;;;;;;13.07;6.17;;;3.40;99.90;;;;;;7282539;19;20242;-74
2024/01/21 03:35:23;;;;;;;15.67;6.07;;;3.50;99.90;;;;;;7282770;19;20190;-73
2024/01/21 03:37:48;;;;;;;14.87;5.90;;;3.40;99.90;;;;;;7290394;19;20184;-73
2024/01/21 03:40:14;;;;;;;13.77;6.03;;;3.40;99.90;;;;;;7302740;19;20194;-75
2024/01/21 03:42:40;;;;;;;14.00;5.80;;;3.40;99.90;;;;;;7282200;19;20238;-73
2024/01/21 03:45:06;;;;;;;14.73;6.37;;;3.30;99.90;;;;;;7281089;19;20250;-73
2024/01/21 03:47:32;;;;;;;11.77;6.03;;;3.30;99.90;;;;;;7281358;19;20190;-73
2024/01/21 03:49:58;;;;;;;13.03;6.10;;;3.30;99.90;;;;;;7280231;19;20179;-73
2024/01/21 03:52:24;;;;;;;13.03;6.37;;;3.10;99.90;;;;;;7280800;19;20765;-73
2024/01/21 03:54:50;;;;;;;13.17;6.30;;;3.10;99.90;;;;;;7281122;19;20180;-73
2024/01/21 03:57:15;;;;;;;14.43;6.10;;;3.10;99.90;;;;;;7303432;19;20249;-74
2024/01/21 03:59:41;;;;;;;13.17;6.53;;;3.10;99.90;;;;;;7281110;19;20256;-74
2024/01/21 04:02:07;;;;;;;15.63;6.30;;;3.00;99.90;;;;;;7281551;19;25705;-74
2024/01/21 04:04:32;;;;;;;14.30;6.47;;;3.00;99.90;;;;;;7279617;19;20197;-73
2024/01/21 04:06:58;;;;;;;12.37;6.00;;;3.10;99.90;;;;;;7280739;19;20191;-74
2024/01/21 04:09:24;;;;;;;12.17;5.77;;;3.00;99.90;;;;;;7281803;19;20192;-73
2024/01/21 04:11:50;;;;;;;12.57;6.43;;;3.00;99.90;;;;;;7278864;19;20187;-73
2024/01/21 04:14:16;;;;;;;13.53;6.30;;;2.90;99.90;;;;;;7304037;19;20535;-74
2024/01/21 04:16:42;;;;;;;14.73;6.53;;;2.90;99.90;;;;;;7281781;19;20295;-74
2024/01/21 04:19:09;;;;;;;12.03;5.70;;;2.90;99.90;;;;;;7281170;19;20881;-73
2024/01/21 04:21:36;;;;;;;15.27;6.60;;;3.00;99.90;;;;;;7281633;19;20193;-73
2024/01/21 04:24:02;;;;;;;15.07;6.50;;;2.90;99.90;;;;;;7279826;19;20189;-74
2024/01/21 04:26:29;;;;;;;12.30;6.33;;;2.90;99.90;;;;;;7281053;19;20396;-73
2024/01/21 04:28:54;;;;;;;16.07;7.20;;;2.90;99.90;;;;;;7281178;19;20650;-73
2024/01/21 04:31:20;;;;;;;14.20;6.40;;;2.90;99.90;;;;;;7279910;19;20189;-73
2024/01/21 04:33:46;;;;;;;15.03;7.37;;;2.90;99.90;;;;;;7301583;19;20186;-74
2024/01/21 04:36:19;;;;;;;15.47;6.90;;;2.90;99.90;;;;;;7280592;19;20191;-73
2024/01/21 04:38:45;;;;;;;13.83;6.60;;;2.90;99.90;;;;;;7280121;19;20733;-74
2024/01/21 04:41:15;;;;;;;14.30;7.13;;;3.00;99.90;;;;;;7280023;19;20220;-73
2024/01/21 04:43:44;;;;;;;13.70;6.20;;;3.00;99.90;;;;;;7278717;19;20220;-73
2024/01/21 04:46:10;;;;;;;14.63;6.27;;;3.00;99.90;;;;;;7277905;19;20988;-73
2024/01/21 04:48:35;;;;;;;15.53;6.80;;;2.90;99.90;;;;;;7279873;19;20198;-73
2024/01/21 04:51:01;;;;;;;13.63;5.87;;;2.80;99.90;;;;;;7279312;19;20220;-72
2024/01/21 04:53:28;;;;;;;13.83;6.60;;;2.70;99.90;;;;;;7279050;19;20193;-73
2024/01/21 04:55:54;;;;;;;13.50;6.40;;;2.70;99.90;;;;;;7279153;19;20195;-73
2024/01/21 04:58:20;;;;;;;16.53;6.63;;;2.70;99.90;;;;;;7277860;19;20651;-72
2024/01/21 05:00:45;;;;;;;16.30;5.87;;;2.70;99.90;;;;;;7301516;19;20199;-73
2024/01/21 05:03:11;;;;;;;14.87;6.50;;;2.80;99.90;;;;;;7279137;19;21029;-72
2024/01/21 05:05:37;;;;;;;13.17;6.13;;;2.80;99.90;;;;;;7278550;19;20190;-73
2024/01/21 05:08:03;;;;;;;12.93;6.07;;;2.90;99.90;;;;;;7279895;19;20186;-73
2024/01/21 05:10:28;;;;;;;14.80;6.20;;;2.90;99.90;;;;;;7280700;19;20542;-73
2024/01/21 05:12:54;;;;;;;14.87;6.17;;;3.00;99.90;;;;;;7278926;19;20206;-73
2024/01/21 05:15:20;;;;;;;13.60;5.80;;;3.10;99.90;;;;;;7279477;19;20214;-74
2024/01/21 05:17:45;;;;;;;11.93;5.20;;;3.10;99.90;;;;;;7301316;19;20205;-73
2024/01/21 05:20:11;;;;;;;14.33;6.50;;;3.10;99.90;;;;;;7276537;19;20187;-73
2024/01/21 05:22:37;;;;;;;12.77;5.77;;;3.10;99.90;;;;;;7278167;19;20191;-73
2024/01/21 05:25:03;;;;;;;14.03;6.30;;;3.10;99.90;;;;;;7278281;19;20196;-73
2024/01/21 05:27:31;;;;;;;12.17;5.90;;;3.20;99.90;;;;;;7280171;19;20204;-73
2024/01/21 05:29:57;;;;;;;11.67;5.80;;;3.30;99.90;;;;;;7279479;19;20755;-74
2024/01/21 05:32:23;;;;;;;11.63;5.57;;;3.30;99.90;;;;;;7277199;19;20266;-73
2024/01/21 05:34:48;;;;;;;14.47;5.83;;;3.40;99.90;;;;;;7291120;19;20201;-74
2024/01/21 05:37:14;;;;;;;12.83;5.70;;;3.50;99.90;;;;;;7294404;19;20264;-74
2024/01/21 05:39:40;;;;;;;13.40;5.80;;;3.50;99.90;;;;;;7277358;19;20202;-73
2024/01/21 05:42:10;;;;;;;10.90;5.20;;;3.30;99.90;;;;;;7278968;19;20193;-74
2024/01/21 05:44:36;;;;;;;12.50;5.07;;;3.30;99.90;;;;;;7277673;19;20197;-74
2024/01/21 05:47:02;;;;;;;10.93;5.43;;;3.20;99.90;;;;;;7278257;19;20640;-73
2024/01/21 05:49:28;;;;;;;11.27;5.57;;;3.20;99.90;;;;;;7279133;19;20553;-73
2024/01/21 05:51:54;;;;;;;12.57;5.50;;;3.20;99.90;;;;;;7278039;19;20221;-73
2024/01/21 05:54:20;;;;;;;11.07;5.50;;;3.20;99.90;;;;;;7280390;19;20183;-74
2024/01/21 05:56:46;;;;;;;11.53;5.43;;;3.10;99.90;;;;;;7299546;19;20188;-73
2024/01/21 05:59:13;;;;;;;11.90;5.67;;;3.20;99.90;;;;;;7276151;19;20260;-74
2024/01/21 06:01:39;;;;;;;11.60;5.60;;;3.20;99.90;;;;;;7278289;19;20241;-74
2024/01/21 06:04:05;;;;;;;11.47;5.47;;;3.20;99.90;;;;;;7278313;19;20187;-73
2024/01/21 06:06:31;;;;;;;11.83;5.53;;;3.20;99.90;;;;;;7277133;19;20208;-73
2024/01/21 06:08:56;;;;;;;11.17;5.33;;;3.30;99.90;;;;;;7278972;19;21040;-73
2024/01/21 06:11:22;;;;;;;14.57;5.27;;;3.30;99.90;;;;;;7276773;19;20189;-73
2024/01/21 06:13:48;;;;;;;10.07;5.30;;;3.20;99.90;;;;;;7297190;19;20184;-73
2024/01/21 06:16:17;;;;;;;11.33;5.67;;;3.30;99.90;;;;;;7285777;19;20207;-73
2024/01/21 06:18:43;;;;;;;11.47;5.57;;;3.30;99.90;;;;;;7276518;19;20178;-74
2024/01/21 06:21:08;;;;;;;11.40;5.20;;;3.40;99.90;;;;;;7278221;19;20180;-73
2024/01/21 06:23:34;;;;;;;13.90;5.67;;;3.40;99.90;;;;;;7277613;19;20209;-74
2024/01/21 06:26:00;;;;;;;8.83;4.27;;;3.50;99.90;;;;;;7276821;19;20219;-74
2024/01/21 06:28:26;;;;;;;11.20;5.40;;;3.50;99.90;;;;;;7279150;19;20227;-73
2024/01/21 06:30:51;;;;;;;12.03;6.10;;;3.50;99.90;;;;;;7274330;19;20244;-73
2024/01/21 06:33:17;;;;;;;12.50;5.73;;;3.50;99.90;;;;;;7300706;19;20328;-74
2024/01/21 06:35:43;;;;;;;11.77;5.73;;;3.40;99.90;;;;;;7285529;19;20203;-73
2024/01/21 06:38:09;;;;;;;12.67;5.27;;;3.50;99.90;;;;;;7283675;19;20223;-73
2024/01/21 06:40:34;;;;;;;12.77;5.73;;;3.70;99.90;;;;;;7285784;19;20666;-74
2024/01/21 06:43:00;;;;;;;13.53;5.77;;;3.60;99.90;;;;;;7283789;19;20245;-73
2024/01/21 06:45:26;;;;;;;11.50;5.80;;;3.50;99.90;;;;;;7284700;19;20182;-73
2024/01/21 06:47:51;;;;;;;12.80;5.77;;;3.50;99.90;;;;;;7284640;19;20808;-73
2024/01/21 06:50:17;;;;;;;11.67;5.57;;;3.50;99.90;;;;;;7305057;19;21061;-73
2024/01/21 06:52:43;;;;;;;13.53;5.77;;;3.50;99.90;;;;;;7284033;19;20190;-72
2024/01/21 06:55:09;;;;;;;10.87;5.50;;;3.50;99.90;;;;;;7283362;19;20187;-72
2024/01/21 06:57:34;;;;;;;12.70;6.00;;;3.50;99.90;;;;;;7283510;19;20195;-72
2024/01/21 07:00:05;;;;;;;12.57;5.40;;;3.50;99.90;;;;;;7283618;19;20193;-72
2024/01/21 07:02:32;;;;;;;11.53;5.47;;;3.50;99.90;;;;;;7284391;19;20193;-73
2024/01/21 07:04:58;;;;;;;13.23;5.83;;;3.50;99.90;;;;;;7281108;19;20560;-73
2024/01/21 07:07:23;;;;;;;13.27;7.17;;;3.60;99.90;;;;;;7284373;19;20181;-73
2024/01/21 07:09:49;;;;;;;12.10;5.87;;;3.50;99.90;;;;;;7292519;19;20187;-73
2024/01/21 07:12:15;;;;;;;12.93;5.70;;;3.50;99.90;;;;;;7303506;19;20628;-73
2024/01/21 07:14:41;;;;;;;12.53;6.40;;;3.50;99.90;;;;;;7283174;19;20196;-73
2024/01/21 07:17:06;;;;;;;12.47;6.00;;;3.30;99.90;;;;;;7282478;19;20197;-73
2024/01/21 07:19:32;;;;;;;12.20;6.23;;;3.30;99.90;;;;;;7282883;19;20515;-73
2024/01/21 07:21:58;;;;;;;16.43;5.70;;;3.20;99.90;;;;;;7282982;19;20193;-74
2024/01/21 07:24:24;;;;;;;13.67;6.30;;;3.10;99.90;;;;;;7281493;19;20256;-73
2024/01/21 07:26:50;;;;;;;11.80;5.77;;;3.00;99.90;;;;;;7280765;19;20190;-73
2024/01/21 07:29:15;;;;;;;13.73;6.37;;;2.90;99.90;;;;;;7302222;19;20200;-73
2024/01/21 07:31:41;;;;;;;14.20;6.70;;;3.00;99.90;;;;;;7278816;19;20197;-73
2024/01/21 07:34:10;;;;;;;13.33;6.27;;;3.00;99.90;;;;;;7280438;19;20198;-73
2024/01/21 07:36:36;;;;;;;14.10;6.10;;;3.00;99.90;;;;;;7279290;19;20206;-73
2024/01/21 07:39:04;;;;;;;13.80;6.37;;;3.10;99.90;;;;;;7279659;19;20203;-74
2024/01/21 07:41:31;;;;;;;13.73;6.47;;;3.20;99.90;;;;;;7279035;19;20197;-74
2024/01/21 07:43:57;;;;;;;12.30;6.20;;;3.30;99.90;;;;;;7279248;19;20189;-74
2024/01/21 07:46:23;;;;;;;13.60;6.83;;;3.40;99.90;;;;;;7277622;19;20191;-74
2024/01/21 07:48:48;;;;;;;12.50;6.60;;;3.50;99.90;;;;;;7299318;19;20177;-74
2024/01/21 07:51:19;;;;;;;13.87;6.80;;;3.50;99.90;;;;;;7296807;19;20210;-75
2024/01/21 07:53:45;;;;;;;14.13;6.70;;;3.50;99.90;;;;;;7279871;19;20193;-74
2024/01/21 07:56:12;;;;;;;12.23;6.37;;;3.50;99.90;;;;;;7278649;19;20197;-75
2024/01/21 07:58:39;;;;;;;14.93;6.30;;;3.50;99.90;;;;;;7278443;19;20224;-76
2024/01/21 08:01:12;;;;;;;14.47;7.37;;;3.50;99.90;;;;;;7277937;19;20205;-75
2024/01/21 08:03:38;;;;;;;14.67;7.20;;;3.50;99.90;;;;;;7279690;19;20197;-75
2024/01/21 08:06:07;;;;;;;13.37;6.83;;;3.50;99.90;;;;;;7277649;19;20195;-75
2024/01/21 08:08:33;;;;;;;13.73;6.73;;;3.50;99.90;;;;;;7278602;19;20203;-76
2024/01/21 08:10:59;;;;;;;14.00;7.03;;;3.60;99.90;;;;;;7277537;19;20910;-75
2024/01/21 08:13:25;;;;;;;12.63;6.60;;;3.60;99.90;;;;;;7277859;19;20200;-75
2024/01/21 08:15:51;;;;;;;14.77;6.67;;;3.70;99.90;;;;;;7275925;19;20202;-74
2024/01/21 08:18:18;;;;;;;13.67;6.43;;;3.80;99.90;;;;;;7300680;19;20270;-75
2024/01/21 08:20:44;;;;;;;14.80;7.23;;;3.90;99.90;;;;;;7278753;19;20208;-78
2024/01/21 08:23:10;;;;;;;13.57;7.30;;;4.10;99.90;;;;;;7278357;19;20185;-75
2024/01/21 08:25:35;;;;;;;13.87;7.00;;;4.10;99.90;;;;;;7137197;19;2776356;-78
2024/01/21 08:28:02;;;;;;;14.50;6.70;;;4.20;99.90;;;;;;7279129;19;20224;-75
2024/01/21 08:30:28;;;;;;;10.90;5.30;;;4.20;99.90;;;;;;7279759;19;20660;-73
2024/01/21 08:32:54;;;;;;;13.23;6.23;;;4.20;99.90;;;;;;7279648;19;20190;-74
2024/01/21 08:35:20;;;;;;;13.93;6.50;;;4.10;99.90;;;;;;7289007;19;20223;-73
2024/01/21 08:37:47;;;;;;;12.87;6.30;;;4.10;99.90;;;;;;7300663;19;20332;-74
2024/01/21 08:40:12;;;;;;;13.60;6.30;;;4.10;99.90;;;;;;7281384;19;20196;-74
2024/01/21 08:42:39;;;;;;;14.63;6.80;;;4.10;99.90;;;;;;7280425;19;20187;-74
2024/01/21 08:45:06;;;;;;;12.70;6.13;;;4.00;99.90;;;;;;7280220;19;20851;-74
2024/01/21 08:47:32;;;;;;;14.87;7.30;;;4.00;99.90;;;;;;7279849;19;20194;-74
2024/01/21 08:49:58;;;;;;;12.93;6.70;;;4.10;99.90;;;;;;7280883;19;20199;-73
2024/01/21 08:52:24;;;;;;;13.73;6.30;;;4.20;99.90;;;;;;7279828;19;20294;-74
2024/01/21 08:54:50;;;;;;;13.53;6.67;;;4.30;99.90;;;;;;7287251;19;20222;-75
2024/01/21 08:57:15;;;;;;;14.43;5.90;;;4.30;99.90;;;;;;7298880;19;20194;-74
2024/01/21 08:59:41;;;;;;;11.57;5.97;;;4.40;99.90;;;;;;7279041;19;20194;-74
2024/01/21 09:02:07;;;;;;;15.30;6.40;;;4.50;99.90;;;;;;7278650;19;20261;-75
2024/01/21 09:04:33;;;;;;;12.23;6.30;;;4.60;99.90;;;;;;7279713;19;20198;-74
2024/01/21 09:06:58;;;;;;;12.43;6.57;;;4.50;99.90;;;;;;7279472;19;20189;-75
2024/01/21 09:09:24;;;;;;;13.60;6.30;;;4.70;99.90;;;;;;7279499;19;20192;-74
2024/01/21 09:11:51;;;;;;;13.23;5.93;;;4.70;99.90;;;;;;7285992;19;20200;-74
2024/01/21 09:14:18;;;;;;;13.83;6.50;;;4.80;99.90;;;;;;7297838;19;20193;-74
2024/01/21 09:16:43;;;;;;;14.50;6.73;;;4.90;99.90;;;;;;7279697;19;20625;-75
2024/01/21 09:19:12;;;;;;;17.00;6.87;;;5.00;99.90;;;;;;7279395;19;20193;-75
2024/01/21 09:21:38;;;;;;;14.93;7.47;;;5.00;99.90;;;;;;7279789;19;20204;-75
2024/01/21 09:24:04;;;;;;;16.27;6.70;;;5.10;99.90;;;;;;7278849;19;20220;-74
2024/01/21 09:26:31;;;;;;;15.80;6.77;;;5.20;99.90;;;;;;7278328;19;20197;-74
2024/01/21 09:28:57;;;;;;;12.90;6.73;;;5.00;99.90;;;;;;7276992;19;20181;-74
2024/01/21 09:31:22;;;;;;;15.73;6.10;;;5.00;99.90;;;;;;7277613;19;20188;-75
2024/01/21 09:33:48;;;;;;;11.53;5.60;;;5.10;99.90;;;;;;7298308;19;20260;-75
2024/01/21 09:36:15;;;;;;;15.43;6.67;;;5.10;99.90;;;;;;7279850;19;20182;-75
2024/01/21 09:38:41;;;;;;;12.50;6.43;;;5.10;99.90;;;;;;7277675;19;20185;-76
2024/01/21 09:41:17;;;;;;;14.33;6.80;;;5.30;99.90;;;;;;7279912;19;20183;-74
2024/01/21 09:43:44;;;;;;;13.10;6.10;;;5.40;99.90;;;;;;7280171;19;20201;-74
2024/01/21 09:46:13;;;;;;;12.23;6.13;;;5.50;99.90;;;;;;7278880;19;20180;-74
2024/01/21 09:48:39;;;;;;;12.47;6.10;;;5.50;99.90;;;;;;7279004;19;20187;-74
2024/01/21 09:51:08;;;;;;;13.27;5.93;;;5.40;99.90;;;;;;7279714;19;20190;-75
2024/01/21 09:53:34;;;;;;;13.07;5.83;;;5.50;99.90;;;;;;7278048;19;20195;-75
2024/01/21 09:56:09;;;;;;;12.07;6.10;;;5.60;99.90;;;;;;7277977;19;20191;-76
2024/01/21 09:58:45;;;;;;;11.77;6.20;;;5.70;99.90;;;;;;7277127;19;20184;-75
2024/01/21 10:01:11;;;;;;;13.57;7.03;;;5.80;99.90;;;;;;7276032;19;20881;-74
2024/01/21 10:03:37;;;;;;;12.97;6.00;;;6.00;99.90;;;;;;7278667;19;20185;-74
2024/01/21 10:06:04;;;;;;;12.17;5.60;;;6.20;99.90;;;;;;7277358;19;20656;-74
2024/01/21 10:08:31;;;;;;;13.50;6.57;;;6.30;99.90;;;;;;7276633;19;20187;-75
2024/01/21 10:11:02;;;;;;;14.37;6.27;;;6.20;99.90;;;;;;7277473;19;20188;-74
2024/01/21 10:13:30;;;;;;;11.33;5.70;;;6.20;99.90;;;;;;7275470;19;20187;-74
2024/01/21 10:15:57;;;;;;;12.47;6.03;;;6.30;99.90;;;;;;7275513;19;20711;-74
2024/01/21 10:18:26;;;;;;;11.57;5.93;;;6.40;99.90;;;;;;7274529;19;20757;-75
2024/01/21 10:20:51;;;;;;;13.77;6.03;;;6.30;99.90;;;;;;7275787;19;20252;-74
2024/01/21 10:23:17;;;;;;;11.97;5.93;;;6.50;99.90;;;;;;7300291;19;20269;-75
2024/01/21 10:25:47;;;;;;;13.33;5.60;;;6.60;99.90;;;;;;7277283;19;20215;-75
2024/01/21 10:28:13;;;;;;;12.90;6.03;;;6.60;99.90;;;;;;7277236;19;20196;-74
2024/01/21 10:30:42;;;;;;;11.43;5.87;;;6.50;99.90;;;;;;7273267;19;20201;-74
2024/01/21 10:33:08;;;;;;;10.63;5.50;;;6.60;99.90;;;;;;7271575;19;20661;-75
2024/01/21 10:35:33;;;;;;;11.00;5.57;;;6.50;99.90;;;;;;7275702;19;20213;-74
2024/01/21 10:38:02;;;;;;;13.20;6.70;;;6.60;99.90;;;;;;7276663;19;20215;-75
2024/01/21 10:40:28;;;;;;;11.13;5.33;;;6.70;99.90;;;;;;7277658;19;20220;-74
2024/01/21 10:42:58;;;;;;;10.53;5.47;;;6.50;99.90;;;;;;7277861;19;20199;-73
2024/01/21 10:45:26;;;;;;;13.63;5.93;;;6.50;99.90;;;;;;7275887;19;20200;-73
2024/01/21 10:47:57;;;;;;;11.07;5.97;;;6.50;99.90;;;;;;7276027;19;20207;-74
2024/01/21 10:50:24;;;;;;;12.37;5.80;;;6.70;99.90;;;;;;7275803;19;20664;-74
2024/01/21 10:52:50;;;;;;;10.93;5.60;;;6.70;99.90;;;;;;7288797;19;20269;-73
2024/01/21 10:55:16;;;;;;;11.83;6.00;;;6.70;99.90;;;;;;7298033;19;20293;-75
2024/01/21 10:57:43;;;;;;;13.43;6.60;;;7.00;99.90;;;;;;7276942;19;20554;-74
2024/01/21 11:00:10;;;;;;;13.97;6.30;;;7.00;99.90;;;;;;7274281;19;20185;-74
2024/01/21 11:02:36;;;;;;;10.63;5.73;;;7.00;99.90;;;;;;7275635;19;20738;-74
2024/01/21 11:05:02;;;;;;;12.70;6.53;;;6.80;99.90;;;;;;7275538;19;20198;-73
2024/01/21 11:07:30;;;;;;;12.73;6.07;;;6.70;99.90;;;;;;7277188;19;20233;-75
2024/01/21 11:09:57;;;;;;;11.83;6.33;;;6.80;99.90;;;;;;7275883;19;20191;-74
2024/01/21 11:12:23;;;;;;;12.93;6.30;;;7.00;99.90;;;;;;7273049;19;20260;-74
2024/01/21 11:14:49;;;;;;;12.37;6.63;;;7.30;99.90;;;;;;7295592;19;20186;-74
2024/01/21 11:17:20;;;;;;;12.33;6.30;;;7.30;99.90;;;;;;7275522;19;20192;-73
2024/01/21 11:19:50;;;;;;;15.23;6.33;;;7.30;99.90;;;;;;7279790;19;20193;-73
2024/01/21 11:22:18;;;;;;;12.00;6.37;;;7.40;99.90;;;;;;7283782;19;20215;-73
2024/01/21 11:24:45;;;;;;;15.67;6.90;;;7.30;99.90;;;;;;7280917;19;20193;-74
2024/01/21 11:27:21;;;;;;;14.10;6.80;;;7.30;99.90;;;;;;7281591;19;20193;-75
2024/01/21 11:29:55;;;;;;;14.37;7.23;;;7.40;99.90;;;;;;7281514;19;20218;-74
2024/01/21 11:32:28;;;;;;;14.07;7.17;;;7.30;99.90;;;;;;7261125;19;20185;-74
2024/01/21 11:34:55;;;;;;;13.07;6.90;;;7.30;99.90;;;;;;7279224;19;20185;-74
2024/01/21 11:37:22;;;;;;;15.30;7.47;;;7.30;99.90;;;;;;7283094;19;20178;-74
2024/01/21 11:39:49;;;;;;;14.20;7.03;;;7.40;99.90;;;;;;7301934;19;20188;-74
2024/01/21 11:42:15;;;;;;;14.63;6.60;;;7.50;99.90;;;;;;7281833;19;20660;-75
2024/01/21 11:44:41;;;;;;;13.03;6.93;;;8.10;99.90;;;;;;7282963;19;20898;-75
2024/01/21 11:47:07;;;;;;;18.47;8.13;;;8.70;99.90;;;;;;7280646;19;20188;-77
2024/01/21 11:49:35;;;;;;;14.77;6.80;;;8.90;99.90;;;;;;7282353;19;20181;-75
2024/01/21 11:52:06;;;;;;;12.30;6.10;;;9.00;99.90;;;;;;7282557;19;20216;-75
2024/01/21 11:54:32;;;;;;;10.57;5.97;;;8.60;99.90;;;;;;7281026;19;20203;-75
2024/01/21 11:56:59;;;;;;;13.23;6.23;;;8.10;99.90;;;;;;7282073;19;20261;-78
2024/01/21 11:59:25;;;;;;;12.67;6.57;;;8.00;99.90;;;;;;7280874;19;20181;-74
2024/01/21 12:01:54;;;;;;;13.30;6.50;;;8.00;99.90;;;;;;7285378;19;20188;-76
2024/01/21 12:04:20;;;;;;;13.07;6.90;;;7.80;99.90;;;;;;7293601;19;20270;-74
2024/01/21 12:06:49;;;;;;;10.60;6.13;;;7.70;99.90;;;;;;7296988;19;20337;-75
2024/01/21 12:09:15;;;;;;;14.60;7.03;;;7.70;99.90;;;;;;7281812;19;20186;-75
2024/01/21 12:11:41;;;;;;;13.43;6.60;;;7.90;99.90;;;;;;7279591;19;20178;-74
2024/01/21 12:14:13;;;;;;;14.90;6.97;;;7.70;99.90;;;;;;7279200;19;20641;-74
2024/01/21 12:16:39;;;;;;;15.37;6.83;;;7.50;99.90;;;;;;7281106;19;20658;-74
2024/01/21 12:19:06;;;;;;;13.87;7.17;;;7.50;99.90;;;;;;7280024;19;20185;-75
2024/01/21 12:21:33;;;;;;;12.17;6.37;;;7.40;99.90;;;;;;7280551;19;20196;-76
2024/01/21 12:24:00;;;;;;;13.77;7.40;;;7.20;99.90;;;;;;7281144;19;20304;-75
2024/01/21 12:26:26;;;;;;;11.63;6.63;;;7.30;99.90;;;;;;7280089;19;20200;-75
2024/01/21 12:29:07;;;;;;;14.10;6.97;;;7.50;99.90;;;;;;7282362;19;20189;-75
2024/01/21 12:31:34;;;;;;;24.00;11.57;;;7.70;99.90;;;;;;7278711;19;20569;-75
2024/01/21 12:34:02;;;;;;;11.30;6.00;;;7.80;99.90;;;;;;7279156;19;20200;-74
2024/01/21 12:36:31;;;;;;;17.37;8.70;;;7.70;99.90;;;;;;7276652;19;20193;-75
2024/01/21 12:38:57;;;;;;;16.23;7.83;;;7.90;99.90;;;;;;7279596;19;20799;-75
2024/01/21 12:41:23;;;;;;;15.83;7.33;;;8.10;99.90;;;;;;7278673;19;20189;-74
2024/01/21 12:43:52;;;;;;;12.00;6.17;;;8.10;99.90;;;;;;7303431;19;20189;-74